Time;durP1;ratioP1;P1;durP2;ratioP2;P2;SDS_P1;SDS_P2;PMS_P1;PMS_P2;Temp;Humidity;BMP_temperature;BMP_pressure;BME280_temperature;BME280_humidity;BME280_pressure;Samples;Min_cycle;Max_cycle;Signal;HPM_P1;HPM_P2
2023/04/09 00:02:16;;;;;;;71.10;45.60;;;;;;;;;;5052396;28;20066;-61
2023/04/09 00:04:42;;;;;;;69.17;47.13;;;;;;;;;;5070261;28;20098;-61
2023/04/09 00:07:08;;;;;;;76.57;47.10;;;;;;;;;;5056863;28;20052;-61
2023/04/09 00:09:35;;;;;;;69.80;46.07;;;;;;;;;;5050208;28;20132;-60
2023/04/09 00:12:02;;;;;;;68.80;45.30;;;;;;;;;;5049905;28;20626;-60
2023/04/09 00:14:28;;;;;;;74.37;47.47;;;;;;;;;;5049739;28;20052;-60
2023/04/09 00:16:54;;;;;;;73.67;46.77;;;;;;;;;;5064160;28;20052;-60
2023/04/09 00:19:21;;;;;;;71.63;44.93;;;;;;;;;;5067016;28;20049;-60
2023/04/09 00:21:47;;;;;;;74.13;47.20;;;;;;;;;;5069205;28;20044;-60
2023/04/09 00:24:13;;;;;;;73.37;47.77;;;;;;;;;;5060294;28;20082;-60
2023/04/09 00:26:39;;;;;;;72.30;47.20;;;;;;;;;;5063112;28;20186;-60
2023/04/09 00:29:05;;;;;;;66.70;44.67;;;;;;;;;;5066405;28;20048;-60
2023/04/09 00:31:32;;;;;;;71.90;44.30;;;;;;;;;;5068081;28;20064;-60
2023/04/09 00:33:58;;;;;;;70.03;42.90;;;;;;;;;;5069444;28;20414;-60
2023/04/09 00:36:25;;;;;;;69.40;44.50;;;;;;;;;;5053858;28;20521;-60
2023/04/09 00:38:52;;;;;;;69.80;44.73;;;;;;;;;;5067233;28;20542;-60
2023/04/09 00:41:18;;;;;;;70.70;44.53;;;;;;;;;;5059471;28;20472;-60
2023/04/09 00:43:45;;;;;;;72.40;43.53;;;;;;;;;;5066656;28;20051;-60
2023/04/09 00:46:11;;;;;;;66.60;42.00;;;;;;;;;;5066148;28;20084;-60
2023/04/09 00:48:37;;;;;;;68.07;44.00;;;;;;;;;;5049268;28;20393;-60
2023/04/09 00:51:03;;;;;;;67.03;40.70;;;;;;;;;;5049597;28;20044;-60
2023/04/09 00:53:29;;;;;;;65.53;42.33;;;;;;;;;;5049609;28;20044;-60
2023/04/09 00:55:56;;;;;;;68.53;41.20;;;;;;;;;;5049555;28;20109;-60
2023/04/09 00:58:22;;;;;;;69.80;41.50;;;;;;;;;;5061468;28;20033;-60
2023/04/09 01:00:48;;;;;;;72.57;42.23;;;;;;;;;;5048192;28;20049;-60
2023/04/09 01:03:14;;;;;;;67.73;38.83;;;;;;;;;;5049352;28;20040;-60
2023/04/09 01:05:47;;;;;;;64.80;37.27;;;;;;;;;;5049737;28;20045;-60
2023/04/09 01:08:13;;;;;;;59.95;36.17;;;;;;;;;;5049408;28;20491;-60
2023/04/09 01:10:39;;;;;;;55.23;33.40;;;;;;;;;;5049288;28;20045;-60
2023/04/09 01:13:13;;;;;;;53.83;31.07;;;;;;;;;;5049324;28;20053;-60
2023/04/09 01:15:42;;;;;;;49.83;31.40;;;;;;;;;;5049530;28;20384;-60
2023/04/09 01:18:15;;;;;;;56.20;32.53;;;;;;;;;;5048967;28;21105;-60
2023/04/09 01:21:07;;;;;;;56.85;34.30;;;;;;;;;;5049040;28;20045;-60
2023/04/09 01:23:38;;;;;;;47.97;29.70;;;;;;;;;;5047734;28;20048;-60
2023/04/09 01:26:07;;;;;;;49.63;31.10;;;;;;;;;;5049079;28;20045;-60
2023/04/09 01:28:36;;;;;;;51.33;31.43;;;;;;;;;;5048252;28;20057;-60
2023/04/09 01:31:04;;;;;;;50.07;31.00;;;;;;;;;;5049456;28;20136;-60
2023/04/09 01:33:31;;;;;;;51.40;29.93;;;;;;;;;;5048799;28;20102;-60
2023/04/09 01:35:57;;;;;;;55.37;31.87;;;;;;;;;;5061117;28;20414;-60
2023/04/09 01:38:24;;;;;;;49.73;31.27;;;;;;;;;;5068860;28;20086;-60
2023/04/09 01:40:50;;;;;;;46.03;29.23;;;;;;;;;;5067637;28;20379;-60
2023/04/09 01:43:17;;;;;;;51.20;31.17;;;;;;;;;;5055223;28;20458;-60
2023/04/09 01:45:44;;;;;;;49.57;30.30;;;;;;;;;;5053278;28;20052;-60
2023/04/09 01:48:12;;;;;;;51.43;31.67;;;;;;;;;;5059915;28;20049;-60
2023/04/09 01:50:38;;;;;;;55.17;31.23;;;;;;;;;;5048834;28;20099;-60
2023/04/09 01:53:04;;;;;;;54.10;31.17;;;;;;;;;;5064209;28;20047;-60
2023/04/09 01:55:30;;;;;;;50.57;31.13;;;;;;;;;;5068758;28;20072;-60
2023/04/09 01:57:57;;;;;;;54.07;31.93;;;;;;;;;;5069001;28;20049;-60
2023/04/09 02:00:23;;;;;;;52.23;31.30;;;;;;;;;;5068459;28;20049;-60
2023/04/09 02:03:05;;;;;;;52.13;30.60;;;;;;;;;;5068687;28;20521;-60
2023/04/09 02:05:33;;;;;;;49.83;29.17;;;;;;;;;;5058997;28;20140;-60
2023/04/09 02:08:01;;;;;;;50.80;29.47;;;;;;;;;;5068728;28;20045;-60
2023/04/09 02:10:30;;;;;;;48.23;29.33;;;;;;;;;;5068339;28;20052;-60
2023/04/09 02:12:57;;;;;;;47.63;29.30;;;;;;;;;;5068303;28;20048;-60
2023/04/09 02:15:24;;;;;;;51.07;30.83;;;;;;;;;;5068799;28;20072;-60
2023/04/09 02:17:50;;;;;;;51.47;30.87;;;;;;;;;;5068556;28;20414;-61
2023/04/09 02:20:17;;;;;;;52.97;31.43;;;;;;;;;;5068651;28;20052;-60
2023/04/09 02:22:43;;;;;;;50.80;29.57;;;;;;;;;;5059673;28;20114;-60
2023/04/09 02:25:09;;;;;;;46.47;28.93;;;;;;;;;;5048079;28;20112;-60
2023/04/09 02:27:35;;;;;;;53.27;32.30;;;;;;;;;;5048532;28;20514;-60
2023/04/09 02:30:01;;;;;;;55.33;32.03;;;;;;;;;;5048530;28;20048;-60
2023/04/09 02:32:27;;;;;;;52.57;30.53;;;;;;;;;;5047819;28;20080;-60
2023/04/09 02:34:53;;;;;;;54.63;30.93;;;;;;;;;;5048527;28;20106;-60
2023/04/09 02:37:19;;;;;;;54.33;32.90;;;;;;;;;;5048652;28;20045;-60
2023/04/09 02:39:45;;;;;;;53.53;32.37;;;;;;;;;;5048879;28;20048;-60
2023/04/09 02:42:11;;;;;;;53.13;31.43;;;;;;;;;;5066732;28;20040;-60
2023/04/09 02:44:37;;;;;;;50.03;32.53;;;;;;;;;;5068278;28;20518;-59
2023/04/09 02:47:04;;;;;;;57.27;32.53;;;;;;;;;;5068283;28;20057;-60
2023/04/09 02:49:30;;;;;;;57.47;33.00;;;;;;;;;;5061936;28;20052;-60
2023/04/09 02:51:56;;;;;;;56.90;31.80;;;;;;;;;;5051473;28;20049;-60
2023/04/09 02:54:22;;;;;;;53.40;31.73;;;;;;;;;;5055247;28;20041;-60
2023/04/09 02:56:48;;;;;;;56.37;31.27;;;;;;;;;;5060834;28;20110;-60
2023/04/09 02:59:14;;;;;;;56.07;33.47;;;;;;;;;;5051556;28;20060;-60
2023/04/09 03:01:40;;;;;;;60.60;33.83;;;;;;;;;;5051758;28;20095;-60
2023/04/09 03:04:06;;;;;;;60.17;33.90;;;;;;;;;;5051657;28;20049;-60
2023/04/09 03:06:33;;;;;;;58.37;32.40;;;;;;;;;;5054782;28;20521;-60
2023/04/09 03:08:59;;;;;;;61.03;33.20;;;;;;;;;;5071825;28;20049;-60
2023/04/09 03:11:25;;;;;;;58.77;34.23;;;;;;;;;;5071090;28;20048;-60
2023/04/09 03:13:51;;;;;;;62.30;35.70;;;;;;;;;;5060149;28;20411;-61
2023/04/09 03:16:17;;;;;;;55.53;33.80;;;;;;;;;;5051304;28;20040;-60
2023/04/09 03:18:43;;;;;;;59.67;33.43;;;;;;;;;;5051411;28;20079;-61
2023/04/09 03:21:09;;;;;;;62.90;35.80;;;;;;;;;;5051359;28;20574;-60
2023/04/09 03:23:35;;;;;;;56.60;34.53;;;;;;;;;;5051045;28;20049;-61
2023/04/09 03:26:02;;;;;;;58.40;33.80;;;;;;;;;;5051088;28;20045;-60
2023/04/09 03:28:28;;;;;;;61.20;34.00;;;;;;;;;;5049439;28;20053;-61
2023/04/09 03:30:54;;;;;;;56.57;34.57;;;;;;;;;;5052075;28;20416;-60
2023/04/09 03:33:20;;;;;;;62.60;35.83;;;;;;;;;;5049791;28;20044;-60
2023/04/09 03:35:46;;;;;;;55.83;34.63;;;;;;;;;;5050815;28;20048;-60
2023/04/09 03:38:12;;;;;;;64.80;37.73;;;;;;;;;;5050963;28;20045;-60
2023/04/09 03:40:39;;;;;;;56.33;33.87;;;;;;;;;;5051077;28;20041;-60
2023/04/09 03:43:05;;;;;;;63.67;35.43;;;;;;;;;;5054282;28;20044;-61
2023/04/09 03:45:31;;;;;;;63.57;34.43;;;;;;;;;;5070437;28;20048;-60
2023/04/09 03:47:57;;;;;;;64.30;34.83;;;;;;;;;;5058877;28;20114;-60
2023/04/09 03:50:23;;;;;;;58.97;37.07;;;;;;;;;;5050475;28;20088;-60
2023/04/09 03:52:49;;;;;;;66.23;37.23;;;;;;;;;;5050631;28;20049;-61
2023/04/09 03:55:15;;;;;;;59.10;35.77;;;;;;;;;;5066838;28;20402;-60
2023/04/09 03:57:41;;;;;;;62.57;35.37;;;;;;;;;;5069513;28;20052;-60
2023/04/09 04:00:08;;;;;;;60.27;35.60;;;;;;;;;;5054307;28;20526;-60
2023/04/09 04:02:34;;;;;;;57.43;35.57;;;;;;;;;;5067328;28;20040;-61
2023/04/09 04:05:00;;;;;;;55.93;34.97;;;;;;;;;;5065191;28;20044;-60
2023/04/09 04:07:26;;;;;;;59.37;35.13;;;;;;;;;;5059544;28;20049;-60
2023/04/09 04:09:52;;;;;;;58.67;34.43;;;;;;;;;;5050091;28;20140;-60
2023/04/09 04:12:18;;;;;;;57.00;33.93;;;;;;;;;;5067840;28;20147;-60
2023/04/09 04:14:44;;;;;;;56.23;34.57;;;;;;;;;;5070087;28;20051;-60
2023/04/09 04:17:10;;;;;;;56.80;32.43;;;;;;;;;;5070141;28;20457;-60
2023/04/09 04:19:36;;;;;;;50.97;32.90;;;;;;;;;;5070193;28;20075;-61
2023/04/09 04:22:02;;;;;;;53.67;30.83;;;;;;;;;;5056702;28;20049;-60
2023/04/09 04:24:28;;;;;;;52.60;32.40;;;;;;;;;;5067524;28;20055;-61
2023/04/09 04:26:55;;;;;;;49.53;28.83;;;;;;;;;;5069915;28;20453;-61
2023/04/09 04:29:21;;;;;;;49.07;30.63;;;;;;;;;;5069787;28;20135;-61
2023/04/09 04:31:47;;;;;;;50.80;30.40;;;;;;;;;;5070014;28;20119;-60
2023/04/09 04:34:13;;;;;;;49.20;29.77;;;;;;;;;;5069595;28;20554;-61
2023/04/09 04:36:39;;;;;;;47.40;30.27;;;;;;;;;;5070049;28;20132;-61
2023/04/09 04:39:05;;;;;;;56.87;33.00;;;;;;;;;;5068550;28;20054;-61
2023/04/09 04:41:31;;;;;;;53.50;32.00;;;;;;;;;;5069545;28;20700;-61
2023/04/09 04:43:57;;;;;;;52.83;33.57;;;;;;;;;;5069623;28;20033;-61
2023/04/09 04:46:23;;;;;;;54.90;32.63;;;;;;;;;;5069896;28;20044;-60
2023/04/09 04:48:49;;;;;;;52.77;33.40;;;;;;;;;;5069096;28;20581;-61
2023/04/09 04:51:15;;;;;;;58.27;33.80;;;;;;;;;;5069143;28;20413;-61
2023/04/09 04:53:41;;;;;;;54.13;32.50;;;;;;;;;;5069511;28;20127;-61
2023/04/09 04:56:11;;;;;;;55.80;32.67;;;;;;;;;;5068469;28;20144;-61
2023/04/09 04:58:37;;;;;;;57.87;34.17;;;;;;;;;;5069549;28;20536;-60
2023/04/09 05:01:03;;;;;;;53.40;32.50;;;;;;;;;;5051600;28;20041;-61
2023/04/09 05:03:29;;;;;;;54.53;32.67;;;;;;;;;;5049276;28;20044;-61
2023/04/09 05:05:56;;;;;;;56.10;33.17;;;;;;;;;;5049234;28;20052;-61
2023/04/09 05:08:22;;;;;;;50.97;32.70;;;;;;;;;;5049456;28;20045;-60
2023/04/09 05:10:48;;;;;;;53.87;31.87;;;;;;;;;;5049264;28;20045;-61
2023/04/09 05:13:14;;;;;;;55.40;33.07;;;;;;;;;;5049471;28;20106;-60
2023/04/09 05:15:40;;;;;;;54.93;33.57;;;;;;;;;;5048383;28;20136;-61
2023/04/09 05:18:06;;;;;;;58.93;35.33;;;;;;;;;;5049414;28;20064;-61
2023/04/09 05:20:33;;;;;;;52.20;32.93;;;;;;;;;;5048875;28;20075;-60
2023/04/09 05:22:59;;;;;;;55.37;33.10;;;;;;;;;;5049069;28;20051;-61
2023/04/09 05:25:25;;;;;;;48.23;30.97;;;;;;;;;;5048737;28;20521;-60
2023/04/09 05:27:51;;;;;;;52.50;31.37;;;;;;;;;;5048813;28;20348;-61
2023/04/09 05:30:17;;;;;;;50.27;30.80;;;;;;;;;;5063151;28;20697;-61
2023/04/09 05:32:43;;;;;;;52.37;32.60;;;;;;;;;;5068956;28;20079;-60
2023/04/09 05:35:09;;;;;;;49.37;31.27;;;;;;;;;;5068736;28;21072;-60
2023/04/09 05:37:35;;;;;;;52.93;32.07;;;;;;;;;;5068638;28;20059;-60
2023/04/09 05:40:01;;;;;;;50.37;32.03;;;;;;;;;;5068563;28;20045;-61
2023/04/09 05:42:27;;;;;;;51.30;32.60;;;;;;;;;;5070237;28;20055;-61
2023/04/09 05:44:53;;;;;;;47.40;30.77;;;;;;;;;;5068701;28;20040;-61
2023/04/09 05:47:19;;;;;;;45.23;27.40;;;;;;;;;;5053595;28;20178;-61
2023/04/09 05:49:45;;;;;;;48.83;28.97;;;;;;;;;;5048935;28;20098;-62
2023/04/09 05:52:11;;;;;;;46.63;28.87;;;;;;;;;;5048504;28;20067;-62
2023/04/09 05:54:37;;;;;;;44.40;28.63;;;;;;;;;;5048595;28;20503;-62
2023/04/09 05:57:03;;;;;;;46.93;29.00;;;;;;;;;;5048915;28;20045;-62
2023/04/09 05:59:29;;;;;;;45.77;29.70;;;;;;;;;;5053585;28;20046;-62
2023/04/09 06:01:55;;;;;;;44.00;28.83;;;;;;;;;;5068857;28;20053;-62
2023/04/09 06:04:21;;;;;;;46.73;29.23;;;;;;;;;;5053133;28;20045;-62
2023/04/09 06:06:47;;;;;;;46.57;29.93;;;;;;;;;;5048386;28;20045;-62
2023/04/09 06:09:13;;;;;;;44.17;28.07;;;;;;;;;;5048220;28;20045;-62
2023/04/09 06:11:39;;;;;;;44.53;28.83;;;;;;;;;;5048424;28;20076;-62
2023/04/09 06:14:06;;;;;;;44.03;29.07;;;;;;;;;;5048381;28;20056;-61
2023/04/09 06:16:32;;;;;;;49.73;31.03;;;;;;;;;;5048175;28;20537;-62
2023/04/09 06:18:58;;;;;;;50.90;32.67;;;;;;;;;;5048456;28;20087;-61
2023/04/09 06:21:24;;;;;;;43.20;29.27;;;;;;;;;;5063696;28;20048;-62
2023/04/09 06:23:52;;;;;;;52.80;31.83;;;;;;;;;;5068118;28;20098;-62
2023/04/09 06:26:18;;;;;;;51.40;31.70;;;;;;;;;;5068132;28;20072;-61
2023/04/09 06:28:44;;;;;;;46.30;29.60;;;;;;;;;;5067765;28;20054;-62
2023/04/09 06:31:10;;;;;;;45.60;30.67;;;;;;;;;;5059508;28;20569;-62
2023/04/09 06:33:36;;;;;;;46.80;29.73;;;;;;;;;;5069966;28;20131;-62
2023/04/09 06:36:02;;;;;;;48.27;28.20;;;;;;;;;;5069336;28;20131;-62
2023/04/09 06:38:28;;;;;;;44.47;28.23;;;;;;;;;;5064193;28;20048;-62
2023/04/09 06:40:56;;;;;;;42.77;26.77;;;;;;;;;;5054781;28;20051;-62
2023/04/09 06:43:22;;;;;;;43.13;26.23;;;;;;;;;;5063947;28;20105;-62
2023/04/09 06:45:48;;;;;;;44.80;28.67;;;;;;;;;;5071682;28;20044;-62
2023/04/09 06:48:14;;;;;;;40.80;26.80;;;;;;;;;;5053031;28;20513;-62
2023/04/09 06:50:40;;;;;;;41.80;28.07;;;;;;;;;;5051876;28;20045;-62
2023/04/09 06:53:06;;;;;;;42.30;28.73;;;;;;;;;;5051451;28;20045;-62
2023/04/09 06:55:32;;;;;;;43.63;28.57;;;;;;;;;;5067661;28;20103;-62
2023/04/09 06:57:58;;;;;;;39.37;26.17;;;;;;;;;;5071666;28;20048;-62
2023/04/09 07:00:25;;;;;;;41.57;27.67;;;;;;;;;;5052628;28;20074;-62
2023/04/09 07:02:52;;;;;;;44.87;28.83;;;;;;;;;;5051233;28;20178;-62
2023/04/09 07:05:18;;;;;;;40.53;27.53;;;;;;;;;;5051183;28;20411;-62
2023/04/09 07:07:44;;;;;;;42.63;27.97;;;;;;;;;;5051497;28;20110;-62
2023/04/09 07:10:10;;;;;;;43.17;27.13;;;;;;;;;;5051295;28;20049;-62
2023/04/09 07:12:36;;;;;;;44.60;27.87;;;;;;;;;;5068124;28;20514;-62
2023/04/09 07:15:04;;;;;;;41.63;26.20;;;;;;;;;;5071159;28;20048;-62
2023/04/09 07:17:31;;;;;;;39.07;27.00;;;;;;;;;;5070952;28;20129;-61
2023/04/09 07:19:57;;;;;;;41.70;27.13;;;;;;;;;;5071394;28;20049;-62
2023/04/09 07:22:23;;;;;;;42.07;27.83;;;;;;;;;;5070995;28;20044;-62
2023/04/09 07:24:52;;;;;;;45.10;28.47;;;;;;;;;;5070870;28;20190;-61
2023/04/09 07:27:22;;;;;;;42.33;28.23;;;;;;;;;;5070640;28;20431;-61
2023/04/09 07:29:49;;;;;;;40.77;26.80;;;;;;;;;;5051072;28;20053;-61
2023/04/09 07:32:15;;;;;;;40.17;27.97;;;;;;;;;;5051238;28;20041;-61
2023/04/09 07:34:41;;;;;;;41.50;27.50;;;;;;;;;;5051163;28;20437;-61
2023/04/09 07:37:07;;;;;;;40.57;27.03;;;;;;;;;;5070415;28;20059;-61
2023/04/09 07:39:33;;;;;;;38.77;25.23;;;;;;;;;;5070256;28;20524;-61
2023/04/09 07:42:03;;;;;;;39.70;26.53;;;;;;;;;;5058279;28;20124;-61
2023/04/09 07:44:33;;;;;;;36.90;24.33;;;;;;;;;;5050745;28;20451;-61
2023/04/09 07:46:59;;;;;;;36.27;25.50;;;;;;;;;;5057847;28;20087;-61
2023/04/09 07:49:25;;;;;;;33.97;23.40;;;;;;;;;;5050130;28;20618;-61
2023/04/09 07:51:51;;;;;;;36.80;24.50;;;;;;;;;;5070042;28;20041;-61
2023/04/09 07:54:19;;;;;;;35.43;24.70;;;;;;;;;;5070268;28;20074;-61
2023/04/09 07:56:45;;;;;;;33.20;24.00;;;;;;;;;;5070462;28;20170;-61
2023/04/09 07:59:14;;;;;;;32.63;23.17;;;;;;;;;;5070535;28;20044;-61
2023/04/09 08:01:40;;;;;;;34.50;23.93;;;;;;;;;;5069431;28;20048;-60
2023/04/09 08:04:06;;;;;;;37.27;24.77;;;;;;;;;;5050325;28;20049;-60
2023/04/09 08:06:32;;;;;;;35.00;24.13;;;;;;;;;;5050227;28;20045;-61
2023/04/09 08:08:58;;;;;;;34.37;23.73;;;;;;;;;;5049920;28;20037;-61
2023/04/09 08:11:24;;;;;;;33.80;24.53;;;;;;;;;;5049801;28;20053;-60
2023/04/09 08:13:54;;;;;;;32.80;24.00;;;;;;;;;;5050257;28;20049;-60
2023/04/09 08:16:22;;;;;;;31.43;23.50;;;;;;;;;;5049839;28;20487;-61
2023/04/09 08:18:48;;;;;;;36.27;25.07;;;;;;;;;;5050564;28;20055;-61
2023/04/09 08:21:14;;;;;;;36.83;24.23;;;;;;;;;;5053405;28;20083;-61
2023/04/09 08:23:40;;;;;;;31.93;24.33;;;;;;;;;;5051715;28;20503;-61
2023/04/09 08:26:06;;;;;;;40.57;26.97;;;;;;;;;;5059681;28;20039;-61
2023/04/09 08:28:32;;;;;;;34.67;24.70;;;;;;;;;;5049472;28;20053;-61
2023/04/09 08:30:58;;;;;;;33.30;23.30;;;;;;;;;;5049838;28;20060;-62
2023/04/09 08:33:25;;;;;;;33.00;23.90;;;;;;;;;;5049092;28;20045;-60
2023/04/09 08:35:51;;;;;;;33.03;23.30;;;;;;;;;;5049671;28;20045;-61
2023/04/09 08:38:18;;;;;;;35.47;24.47;;;;;;;;;;5049509;28;20140;-61
2023/04/09 08:40:44;;;;;;;34.70;23.60;;;;;;;;;;5049185;28;20151;-62
2023/04/09 08:43:14;;;;;;;32.73;23.13;;;;;;;;;;5049401;28;20041;-62
2023/04/09 08:45:41;;;;;;;28.77;22.50;;;;;;;;;;5049162;28;20045;-62
2023/04/09 08:48:09;;;;;;;33.97;21.97;;;;;;;;;;5049301;28;20110;-62
2023/04/09 08:50:35;;;;;;;31.43;22.43;;;;;;;;;;5048706;28;20132;-61
2023/04/09 08:53:04;;;;;;;31.67;23.03;;;;;;;;;;5049116;28;20045;-61
2023/04/09 08:55:33;;;;;;;30.07;21.53;;;;;;;;;;5048406;28;20051;-61
2023/04/09 08:57:59;;;;;;;30.47;21.10;;;;;;;;;;5049263;28;20045;-61
2023/04/09 09:00:26;;;;;;;26.83;19.60;;;;;;;;;;5048768;28;20041;-61
2023/04/09 09:03:05;;;;;;;27.97;21.50;;;;;;;;;;5049124;28;20044;-63
2023/04/09 09:05:40;;;;;;;30.97;22.13;;;;;;;;;;5049810;28;20044;-61
2023/04/09 09:08:07;;;;;;;25.60;21.07;;;;;;;;;;5051625;28;20040;-61
2023/04/09 09:10:44;;;;;;;29.27;21.53;;;;;;;;;;5067346;28;20049;-61
2023/04/09 09:13:16;;;;;;;30.20;22.40;;;;;;;;;;5069046;28;20084;-62
2023/04/09 09:15:43;;;;;;;32.10;21.88;;;;;;;;;;5068206;28;20578;-62
2023/04/09 09:18:09;;;;;;;31.67;22.57;;;;;;;;;;5069119;28;20049;-62
2023/04/09 09:20:35;;;;;;;30.67;21.60;;;;;;;;;;5068988;28;20516;-61
2023/04/09 09:23:02;;;;;;;28.33;21.27;;;;;;;;;;5068531;28;20052;-62
2023/04/09 09:25:29;;;;;;;30.87;23.00;;;;;;;;;;5068569;28;20044;-62
2023/04/09 09:28:05;;;;;;;28.83;22.07;;;;;;;;;;5068594;28;20125;-62
2023/04/09 09:30:33;;;;;;;30.87;21.57;;;;;;;;;;5054494;28;20048;-62
2023/04/09 09:33:09;;;;;;;32.70;22.60;;;;;;;;;;5054956;28;20103;-62
2023/04/09 09:35:52;;;;;;;29.87;22.70;;;;;;;;;;5050594;28;20048;-61
2023/04/09 09:38:19;;;;;;;29.73;22.05;;;;;;;;;;5050704;28;20528;-62
2023/04/09 09:40:45;;;;;;;34.13;24.90;;;;;;;;;;5047275;28;20067;-62
2023/04/09 09:43:13;;;;;;;30.57;21.73;;;;;;;;;;5048300;28;20052;-62
2023/04/09 09:45:40;;;;;;;29.77;22.80;;;;;;;;;;5059072;28;20044;-61
2023/04/09 09:48:06;;;;;;;29.90;21.33;;;;;;;;;;5068511;28;20049;-62
2023/04/09 09:50:34;;;;;;;28.73;22.77;;;;;;;;;;5048160;28;20048;-62
2023/04/09 09:53:07;;;;;;;33.83;25.07;;;;;;;;;;5048363;28;20040;-62
2023/04/09 09:55:40;;;;;;;26.17;20.53;;;;;;;;;;5056995;28;20760;-62
2023/04/09 09:58:16;;;;;;;25.73;20.23;;;;;;;;;;5064595;28;20470;-62
2023/04/09 10:00:43;;;;;;;26.03;20.27;;;;;;;;;;5065231;28;20458;-62
2023/04/09 10:03:20;;;;;;;30.33;21.80;;;;;;;;;;5065428;28;20045;-62
2023/04/09 10:05:48;;;;;;;27.70;21.53;;;;;;;;;;5087849;28;20110;-62
2023/04/09 10:08:15;;;;;;;30.27;22.13;;;;;;;;;;5072277;28;20052;-62
2023/04/09 10:10:42;;;;;;;29.77;23.47;;;;;;;;;;5071748;28;20137;-62
2023/04/09 10:13:15;;;;;;;28.27;21.43;;;;;;;;;;5072532;28;20044;-62
2023/04/09 10:15:43;;;;;;;25.23;20.00;;;;;;;;;;5072546;28;20086;-62
2023/04/09 10:18:09;;;;;;;28.80;21.03;;;;;;;;;;5069422;28;20517;-62
2023/04/09 10:20:39;;;;;;;26.77;21.70;;;;;;;;;;5072192;28;20044;-63
2023/04/09 10:23:11;;;;;;;28.17;22.40;;;;;;;;;;5071872;28;20518;-60
2023/04/09 10:25:37;;;;;;;26.73;22.20;;;;;;;;;;5071401;28;20052;-60
2023/04/09 10:28:14;;;;;;;26.87;20.57;;;;;;;;;;5056345;28;20049;-61
2023/04/09 10:30:41;;;;;;;26.63;20.60;;;;;;;;;;5051887;28;20084;-60
2023/04/09 10:33:18;;;;;;;25.10;20.67;;;;;;;;;;5064885;28;20414;-60
2023/04/09 10:35:47;;;;;;;29.43;22.63;;;;;;;;;;5071620;28;20049;-61
2023/04/09 10:38:14;;;;;;;26.47;22.23;;;;;;;;;;5053708;28;20083;-60
2023/04/09 10:40:41;;;;;;;26.67;21.00;;;;;;;;;;5051633;28;20049;-60
2023/04/09 10:43:08;;;;;;;28.60;21.13;;;;;;;;;;5051725;28;20048;-61
2023/04/09 10:45:41;;;;;;;24.77;21.23;;;;;;;;;;5051671;28;20847;-61
2023/04/09 10:48:14;;;;;;;23.80;19.77;;;;;;;;;;5051597;28;20048;-60
2023/04/09 10:50:43;;;;;;;25.52;20.02;;;;;;;;;;5051186;28;20045;-60
2023/04/09 10:53:21;;;;;;;25.03;19.73;;;;;;;;;;5051190;28;20040;-61
2023/04/09 10:55:49;;;;;;;25.77;21.43;;;;;;;;;;5051450;28;20048;-61
2023/04/09 10:58:15;;;;;;;24.07;21.17;;;;;;;;;;5049913;28;20040;-61
2023/04/09 11:00:48;;;;;;;25.40;20.40;;;;;;;;;;5055789;28;20041;-61
2023/04/09 11:03:14;;;;;;;;;;;;;;;;;;5071225;28;20040;-61
2023/04/09 11:05:41;;;;;;;24.70;20.13;;;;;;;;;;5058957;28;20307;-61
2023/04/09 11:08:08;;;;;;;23.00;18.73;;;;;;;;;;5069450;28;20055;-61
2023/04/09 11:10:35;;;;;;;25.23;20.53;;;;;;;;;;5065915;28;20049;-61
2023/04/09 11:13:01;;;;;;;24.30;20.40;;;;;;;;;;5068662;28;20037;-61
2023/04/09 11:15:28;;;;;;;25.00;20.13;;;;;;;;;;5070426;28;20450;-61
2023/04/09 11:17:56;;;;;;;24.27;19.97;;;;;;;;;;5057864;28;20084;-61
2023/04/09 11:20:23;;;;;;;26.87;19.60;;;;;;;;;;5066726;28;20131;-61
2023/04/09 11:22:53;;;;;;;22.50;19.07;;;;;;;;;;5070866;28;20388;-61
2023/04/09 11:25:20;;;;;;;24.17;18.83;;;;;;;;;;5069013;28;20040;-61
2023/04/09 11:27:46;;;;;;;24.33;18.60;;;;;;;;;;5052339;28;20053;-61
2023/04/09 11:30:12;;;;;;;22.47;18.47;;;;;;;;;;5070515;28;20877;-61
2023/04/09 11:32:38;;;;;;;25.00;19.57;;;;;;;;;;5070009;28;20040;-61
2023/04/09 11:35:05;;;;;;;24.27;18.87;;;;;;;;;;5071025;28;20048;-61
2023/04/09 11:37:31;;;;;;;20.17;16.47;;;;;;;;;;5070738;28;20564;-61
2023/04/09 11:39:57;;;;;;;21.30;16.93;;;;;;;;;;5070057;28;20495;-61
2023/04/09 11:42:24;;;;;;;20.67;17.67;;;;;;;;;;5069689;28;20132;-61
2023/04/09 11:44:52;;;;;;;21.50;17.33;;;;;;;;;;5051781;28;20499;-61
2023/04/09 11:47:19;;;;;;;19.20;16.07;;;;;;;;;;5050631;28;20713;-62
2023/04/09 11:49:46;;;;;;;21.10;17.50;;;;;;;;;;5050365;28;20045;-62
2023/04/09 11:52:13;;;;;;;23.00;17.80;;;;;;;;;;5050270;28;20803;-61
2023/04/09 11:54:39;;;;;;;21.33;17.93;;;;;;;;;;5050536;28;20462;-60
2023/04/09 11:57:05;;;;;;;19.83;16.67;;;;;;;;;;5050695;28;20094;-61
2023/04/09 11:59:31;;;;;;;19.67;15.90;;;;;;;;;;5049626;28;20056;-61
2023/04/09 12:01:58;;;;;;;20.13;15.73;;;;;;;;;;5050474;28;20052;-61
2023/04/09 12:04:24;;;;;;;20.17;16.80;;;;;;;;;;5065518;28;20047;-61
2023/04/09 12:06:50;;;;;;;20.00;17.10;;;;;;;;;;5060481;28;20124;-61
2023/04/09 12:09:16;;;;;;;18.83;16.27;;;;;;;;;;5062726;28;20052;-61
2023/04/09 12:11:43;;;;;;;20.23;16.73;;;;;;;;;;5068933;28;20044;-61
2023/04/09 12:14:13;;;;;;;20.00;16.17;;;;;;;;;;5070051;28;20045;-61
2023/04/09 12:16:43;;;;;;;21.97;16.83;;;;;;;;;;5058877;28;20102;-61
2023/04/09 12:19:10;;;;;;;19.03;15.93;;;;;;;;;;5068241;28;20126;-61
2023/04/09 12:21:49;;;;;;;18.23;15.90;;;;;;;;;;5069841;28;20052;-62
2023/04/09 12:24:16;;;;;;;19.17;15.67;;;;;;;;;;5070003;28;20053;-61
2023/04/09 12:26:42;;;;;;;18.17;15.97;;;;;;;;;;5068128;28;20896;-61
2023/04/09 12:29:09;;;;;;;19.13;15.57;;;;;;;;;;5069009;28;20060;-61
2023/04/09 12:31:35;;;;;;;18.40;15.73;;;;;;;;;;5069249;28;20048;-61
2023/04/09 12:34:01;;;;;;;17.13;14.57;;;;;;;;;;5069083;28;20056;-61
2023/04/09 12:36:28;;;;;;;17.13;15.33;;;;;;;;;;5069146;28;20498;-62
2023/04/09 12:38:55;;;;;;;18.80;16.10;;;;;;;;;;5069059;28;20055;-61
2023/04/09 12:41:21;;;;;;;17.67;15.77;;;;;;;;;;5068523;28;20049;-61
2023/04/09 12:43:48;;;;;;;18.47;16.27;;;;;;;;;;5067620;28;20040;-61
2023/04/09 12:46:14;;;;;;;18.27;15.57;;;;;;;;;;5049900;28;20119;-62
2023/04/09 12:48:40;;;;;;;19.10;15.90;;;;;;;;;;5064542;28;20044;-61
2023/04/09 12:51:06;;;;;;;19.60;16.07;;;;;;;;;;5068481;28;20596;-61
2023/04/09 12:53:32;;;;;;;19.40;16.83;;;;;;;;;;5053121;28;20037;-61
2023/04/09 12:56:00;;;;;;;17.60;15.73;;;;;;;;;;5049501;28;20499;-61
2023/04/09 12:58:26;;;;;;;18.23;16.17;;;;;;;;;;5049043;28;20040;-61
2023/04/09 13:00:53;;;;;;;19.87;16.93;;;;;;;;;;5057708;28;20051;-61
2023/04/09 13:03:20;;;;;;;17.07;15.23;;;;;;;;;;5064574;28;20051;-61
2023/04/09 13:05:46;;;;;;;18.43;15.53;;;;;;;;;;5048606;28;20037;-61
2023/04/09 13:08:12;;;;;;;18.57;15.23;;;;;;;;;;5049029;28;20041;-61
2023/04/09 13:10:38;;;;;;;17.30;15.17;;;;;;;;;;5058830;28;20120;-61
2023/04/09 13:13:10;;;;;;;17.88;15.07;;;;;;;;;;5056990;28;20037;-61
2023/04/09 13:15:36;;;;;;;15.32;13.73;;;;;;;;;;5056794;28;20048;-61
2023/04/09 13:18:02;;;;;;;17.33;13.50;;;;;;;;;;5058406;28;20048;-61
2023/04/09 13:20:29;;;;;;;15.57;13.80;;;;;;;;;;5057542;28;20672;-61
2023/04/09 13:22:55;;;;;;;14.90;13.40;;;;;;;;;;5051326;28;20056;-61
2023/04/09 13:25:21;;;;;;;14.40;12.88;;;;;;;;;;5053198;28;20055;-61
2023/04/09 13:27:48;;;;;;;14.30;12.80;;;;;;;;;;5057144;28;20061;-61
2023/04/09 13:30:14;;;;;;;14.32;12.52;;;;;;;;;;5058294;28;20052;-61
2023/04/09 13:32:41;;;;;;;12.60;11.30;;;;;;;;;;5056353;28;20044;-61
2023/04/09 13:35:07;;;;;;;13.35;11.95;;;;;;;;;;5058315;28;20135;-61
2023/04/09 13:37:34;;;;;;;12.55;11.18;;;;;;;;;;5055472;28;20041;-61
2023/04/09 13:40:00;;;;;;;12.77;11.48;;;;;;;;;;5057613;28;20048;-61
2023/04/09 13:42:26;;;;;;;12.25;11.02;;;;;;;;;;5056738;28;20043;-61
2023/04/09 13:44:52;;;;;;;13.68;12.27;;;;;;;;;;5065377;28;20123;-61
2023/04/09 13:47:18;;;;;;;14.02;12.60;;;;;;;;;;5066540;28;20055;-61
2023/04/09 13:49:45;;;;;;;12.32;11.15;;;;;;;;;;5066885;28;20048;-61
2023/04/09 13:52:11;;;;;;;12.10;10.90;;;;;;;;;;5066985;28;20169;-61
2023/04/09 13:54:37;;;;;;;10.88;9.70;;;;;;;;;;5066563;28;20047;-61
2023/04/09 13:57:03;;;;;;;12.43;11.15;;;;;;;;;;5066958;28;20055;-61
2023/04/09 13:59:29;;;;;;;12.82;11.52;;;;;;;;;;5066541;28;20072;-61
2023/04/09 14:01:55;;;;;;;12.60;11.32;;;;;;;;;;5067877;28;20406;-61
2023/04/09 14:04:22;;;;;;;12.07;10.80;;;;;;;;;;5068243;28;20053;-61
2023/04/09 14:06:48;;;;;;;11.10;10.00;;;;;;;;;;5068911;28;20051;-61
2023/04/09 14:09:15;;;;;;;11.25;10.05;;;;;;;;;;5068040;28;20049;-61
2023/04/09 14:11:41;;;;;;;11.25;10.00;;;;;;;;;;5068042;28;20048;-61
2023/04/09 14:14:07;;;;;;;9.57;8.55;;;;;;;;;;5052524;28;20561;-61
2023/04/09 14:16:33;;;;;;;9.45;8.55;;;;;;;;;;5047973;28;20048;-61
2023/04/09 14:18:59;;;;;;;9.32;8.40;;;;;;;;;;5048321;28;20469;-61